sensor_id;sensor_type;location;lat;lon;timestamp;temperature;humidity
56729;DHT22;42612;52.232;7.560;2023-01-31T00:01:05;8.50;61.00
56729;DHT22;42612;52.232;7.560;2023-01-31T00:03:36;8.50;61.00
56729;DHT22;42612;52.232;7.560;2023-01-31T00:06:10;8.50;60.90
56729;DHT22;42612;52.232;7.560;2023-01-31T00:08:40;8.50;60.90
56729;DHT22;42612;52.232;7.560;2023-01-31T00:11:06;8.50;60.80
56729;DHT22;42612;52.232;7.560;2023-01-31T00:13:33;8.50;60.70
56729;DHT22;42612;52.232;7.560;2023-01-31T00:15:58;8.50;60.70
56729;DHT22;42612;52.232;7.560;2023-01-31T00:18:24;8.40;60.70
56729;DHT22;42612;52.232;7.560;2023-01-31T00:20:49;8.40;60.60
56729;DHT22;42612;52.232;7.560;2023-01-31T00:23:15;8.40;60.60
56729;DHT22;42612;52.232;7.560;2023-01-31T00:25:41;8.40;60.70
56729;DHT22;42612;52.232;7.560;2023-01-31T00:28:06;8.40;60.70
56729;DHT22;42612;52.232;7.560;2023-01-31T00:30:32;8.40;60.70
56729;DHT22;42612;52.232;7.560;2023-01-31T00:32:57;8.40;60.80
56729;DHT22;42612;52.232;7.560;2023-01-31T00:35:23;8.30;60.60
56729;DHT22;42612;52.232;7.560;2023-01-31T00:37:49;8.30;60.60
56729;DHT22;42612;52.232;7.560;2023-01-31T00:40:14;8.30;60.60
56729;DHT22;42612;52.232;7.560;2023-01-31T00:42:40;8.30;60.60
56729;DHT22;42612;52.232;7.560;2023-01-31T00:45:06;8.30;60.60
56729;DHT22;42612;52.232;7.560;2023-01-31T00:47:31;8.30;60.50
56729;DHT22;42612;52.232;7.560;2023-01-31T00:49:57;8.20;60.50
56729;DHT22;42612;52.232;7.560;2023-01-31T00:52:23;8.30;60.50
56729;DHT22;42612;52.232;7.560;2023-01-31T00:54:48;8.20;60.40
56729;DHT22;42612;52.232;7.560;2023-01-31T00:57:14;8.20;60.40
56729;DHT22;42612;52.232;7.560;2023-01-31T00:59:39;8.20;60.40
56729;DHT22;42612;52.232;7.560;2023-01-31T01:02:05;8.20;60.40
56729;DHT22;42612;52.232;7.560;2023-01-31T01:04:30;8.10;60.40
56729;DHT22;42612;52.232;7.560;2023-01-31T01:06:56;8.10;60.40
56729;DHT22;42612;52.232;7.560;2023-01-31T01:09:22;8.10;60.40
56729;DHT22;42612;52.232;7.560;2023-01-31T01:11:48;8.10;60.50
56729;DHT22;42612;52.232;7.560;2023-01-31T01:14:14;8.10;60.50
56729;DHT22;42612;52.232;7.560;2023-01-31T01:16:40;8.10;60.60
56729;DHT22;42612;52.232;7.560;2023-01-31T01:19:07;8.10;60.50
56729;DHT22;42612;52.232;7.560;2023-01-31T01:21:36;8.10;60.60
56729;DHT22;42612;52.232;7.560;2023-01-31T01:24:06;8.10;60.50
56729;DHT22;42612;52.232;7.560;2023-01-31T01:26:35;8.10;60.40
56729;DHT22;42612;52.232;7.560;2023-01-31T01:29:01;8.10;60.50
56729;DHT22;42612;52.232;7.560;2023-01-31T01:31:27;8.10;60.50
56729;DHT22;42612;52.232;7.560;2023-01-31T01:33:57;8.10;60.60
56729;DHT22;42612;52.232;7.560;2023-01-31T01:36:23;8.00;60.60
56729;DHT22;42612;52.232;7.560;2023-01-31T01:38:50;8.00;60.60
56729;DHT22;42612;52.232;7.560;2023-01-31T01:41:16;8.00;60.60
56729;DHT22;42612;52.232;7.560;2023-01-31T01:43:49;8.00;60.60
56729;DHT22;42612;52.232;7.560;2023-01-31T01:46:24;8.10;60.60
56729;DHT22;42612;52.232;7.560;2023-01-31T01:48:53;8.10;60.50
56729;DHT22;42612;52.232;7.560;2023-01-31T01:51:26;8.10;60.50
56729;DHT22;42612;52.232;7.560;2023-01-31T01:53:54;8.00;60.30
56729;DHT22;42612;52.232;7.560;2023-01-31T01:56:27;8.00;60.30
56729;DHT22;42612;52.232;7.560;2023-01-31T01:59:00;8.00;60.30
56729;DHT22;42612;52.232;7.560;2023-01-31T02:01:31;8.00;60.20
56729;DHT22;42612;52.232;7.560;2023-01-31T02:03:59;8.00;60.20
56729;DHT22;42612;52.232;7.560;2023-01-31T02:06:25;8.00;60.20
56729;DHT22;42612;52.232;7.560;2023-01-31T02:08:50;7.90;60.10
56729;DHT22;42612;52.232;7.560;2023-01-31T02:13:51;7.90;60.90
56729;DHT22;42612;52.232;7.560;2023-01-31T02:16:18;7.80;60.10
56729;DHT22;42612;52.232;7.560;2023-01-31T02:18:44;7.90;60.20
56729;DHT22;42612;52.232;7.560;2023-01-31T02:29:45;7.70;60.20
56729;DHT22;42612;52.232;7.560;2023-01-31T02:37:41;7.70;60.30
56729;DHT22;42612;52.232;7.560;2023-01-31T02:40:19;7.70;60.30
56729;DHT22;42612;52.232;7.560;2023-01-31T02:42:52;7.70;60.40
56729;DHT22;42612;52.232;7.560;2023-01-31T02:45:40;7.60;60.30
56729;DHT22;42612;52.232;7.560;2023-01-31T02:48:18;7.60;60.40
56729;DHT22;42612;52.232;7.560;2023-01-31T02:51:12;7.60;60.40
56729;DHT22;42612;52.232;7.560;2023-01-31T02:54:25;7.60;60.50
56729;DHT22;42612;52.232;7.560;2023-01-31T02:56:40;7.60;60.60
56729;DHT22;42612;52.232;7.560;2023-01-31T02:59:07;7.60;60.50
56729;DHT22;42612;52.232;7.560;2023-01-31T03:01:47;7.60;60.50
56729;DHT22;42612;52.232;7.560;2023-01-31T03:04:19;7.70;60.70
56729;DHT22;42612;52.232;7.560;2023-01-31T03:14:49;7.70;60.60
56729;DHT22;42612;52.232;7.560;2023-01-31T03:22:47;7.70;60.60
56729;DHT22;42612;52.232;7.560;2023-01-31T03:25:17;7.70;60.60
56729;DHT22;42612;52.232;7.560;2023-01-31T03:27:46;7.60;60.60
56729;DHT22;42612;52.232;7.560;2023-01-31T03:30:22;7.70;60.70
56729;DHT22;42612;52.232;7.560;2023-01-31T03:32:58;7.60;60.80
56729;DHT22;42612;52.232;7.560;2023-01-31T03:35:26;7.70;60.70
56729;DHT22;42612;52.232;7.560;2023-01-31T03:40:40;7.70;60.70
56729;DHT22;42612;52.232;7.560;2023-01-31T03:43:20;7.70;60.70
56729;DHT22;42612;52.232;7.560;2023-01-31T03:45:56;7.70;60.70
56729;DHT22;42612;52.232;7.560;2023-01-31T03:48:35;7.70;60.60
56729;DHT22;42612;52.232;7.560;2023-01-31T03:51:03;7.70;60.70
56729;DHT22;42612;52.232;7.560;2023-01-31T03:53:39;7.70;60.80
56729;DHT22;42612;52.232;7.560;2023-01-31T03:58:45;7.70;61.30
56729;DHT22;42612;52.232;7.560;2023-01-31T04:01:15;7.70;61.40
56729;DHT22;42612;52.232;7.560;2023-01-31T04:03:46;7.70;61.20
56729;DHT22;42612;52.232;7.560;2023-01-31T04:06:16;7.70;61.20
56729;DHT22;42612;52.232;7.560;2023-01-31T04:08:41;7.70;61.20
56729;DHT22;42612;52.232;7.560;2023-01-31T04:11:09;7.70;61.00
56729;DHT22;42612;52.232;7.560;2023-01-31T04:13:35;7.70;60.90
56729;DHT22;42612;52.232;7.560;2023-01-31T04:16:01;7.70;60.80
56729;DHT22;42612;52.232;7.560;2023-01-31T04:18:27;7.70;60.80
56729;DHT22;42612;52.232;7.560;2023-01-31T04:20:53;7.70;60.90
56729;DHT22;42612;52.232;7.560;2023-01-31T04:23:18;7.80;61.00
56729;DHT22;42612;52.232;7.560;2023-01-31T04:25:44;7.70;61.00
56729;DHT22;42612;52.232;7.560;2023-01-31T04:28:10;7.80;61.00
56729;DHT22;42612;52.232;7.560;2023-01-31T04:30:36;7.80;61.00
56729;DHT22;42612;52.232;7.560;2023-01-31T04:33:01;7.80;61.00
56729;DHT22;42612;52.232;7.560;2023-01-31T04:35:27;7.80;60.90
56729;DHT22;42612;52.232;7.560;2023-01-31T04:37:52;7.80;60.90
56729;DHT22;42612;52.232;7.560;2023-01-31T04:40:18;7.90;60.80
56729;DHT22;42612;52.232;7.560;2023-01-31T04:42:44;7.90;60.90
56729;DHT22;42612;52.232;7.560;2023-01-31T04:45:09;7.90;61.10
56729;DHT22;42612;52.232;7.560;2023-01-31T04:47:35;7.80;61.00
56729;DHT22;42612;52.232;7.560;2023-01-31T04:50:01;7.90;61.00
56729;DHT22;42612;52.232;7.560;2023-01-31T04:52:26;7.90;61.00
56729;DHT22;42612;52.232;7.560;2023-01-31T04:54:52;7.90;61.10
56729;DHT22;42612;52.232;7.560;2023-01-31T04:57:18;7.90;60.90
56729;DHT22;42612;52.232;7.560;2023-01-31T04:59:43;7.90;61.00
56729;DHT22;42612;52.232;7.560;2023-01-31T05:02:09;7.90;61.00
56729;DHT22;42612;52.232;7.560;2023-01-31T05:04:34;7.90;61.00
56729;DHT22;42612;52.232;7.560;2023-01-31T05:07:00;7.90;61.00
56729;DHT22;42612;52.232;7.560;2023-01-31T05:09:26;7.90;61.00
56729;DHT22;42612;52.232;7.560;2023-01-31T05:11:51;7.90;61.10
56729;DHT22;42612;52.232;7.560;2023-01-31T05:14:17;8.00;61.00
56729;DHT22;42612;52.232;7.560;2023-01-31T05:16:45;8.00;61.50
56729;DHT22;42612;52.232;7.560;2023-01-31T05:19:14;8.00;61.30
56729;DHT22;42612;52.232;7.560;2023-01-31T05:21:40;8.00;61.20
56729;DHT22;42612;52.232;7.560;2023-01-31T05:24:25;8.00;61.20
56729;DHT22;42612;52.232;7.560;2023-01-31T05:26:52;8.00;61.50
56729;DHT22;42612;52.232;7.560;2023-01-31T05:29:30;8.00;61.30
56729;DHT22;42612;52.232;7.560;2023-01-31T05:31:57;8.10;61.40
56729;DHT22;42612;52.232;7.560;2023-01-31T05:34:24;8.10;61.30
56729;DHT22;42612;52.232;7.560;2023-01-31T05:36:50;8.10;61.60
56729;DHT22;42612;52.232;7.560;2023-01-31T05:39:16;8.10;61.20
56729;DHT22;42612;52.232;7.560;2023-01-31T05:41:42;8.10;61.30
56729;DHT22;42612;52.232;7.560;2023-01-31T05:44:07;8.10;61.50
56729;DHT22;42612;52.232;7.560;2023-01-31T05:46:33;8.10;61.50
56729;DHT22;42612;52.232;7.560;2023-01-31T05:48:59;8.10;61.50
56729;DHT22;42612;52.232;7.560;2023-01-31T05:51:24;8.10;61.30
56729;DHT22;42612;52.232;7.560;2023-01-31T05:53:50;8.10;61.40
56729;DHT22;42612;52.232;7.560;2023-01-31T05:56:16;8.20;61.50
56729;DHT22;42612;52.232;7.560;2023-01-31T05:58:41;8.20;61.60
56729;DHT22;42612;52.232;7.560;2023-01-31T06:01:07;8.20;61.40
56729;DHT22;42612;52.232;7.560;2023-01-31T06:03:33;8.20;61.40
56729;DHT22;42612;52.232;7.560;2023-01-31T06:05:59;8.20;61.50
56729;DHT22;42612;52.232;7.560;2023-01-31T06:08:24;8.20;61.40
56729;DHT22;42612;52.232;7.560;2023-01-31T06:10:50;8.20;61.40
56729;DHT22;42612;52.232;7.560;2023-01-31T06:13:15;8.20;61.40
56729;DHT22;42612;52.232;7.560;2023-01-31T06:15:41;8.20;61.50
56729;DHT22;42612;52.232;7.560;2023-01-31T06:18:10;8.30;62.00
56729;DHT22;42612;52.232;7.560;2023-01-31T06:20:36;8.30;61.60
56729;DHT22;42612;52.232;7.560;2023-01-31T06:23:03;8.30;61.50
56729;DHT22;42612;52.232;7.560;2023-01-31T06:25:29;8.30;61.70
56729;DHT22;42612;52.232;7.560;2023-01-31T06:27:55;8.30;61.60
56729;DHT22;42612;52.232;7.560;2023-01-31T06:30:21;8.30;61.50
56729;DHT22;42612;52.232;7.560;2023-01-31T06:32:46;8.30;61.80
56729;DHT22;42612;52.232;7.560;2023-01-31T06:35:12;8.30;61.70
56729;DHT22;42612;52.232;7.560;2023-01-31T06:37:37;8.40;61.80
56729;DHT22;42612;52.232;7.560;2023-01-31T06:40:03;8.30;61.50
56729;DHT22;42612;52.232;7.560;2023-01-31T06:42:29;8.30;61.50
56729;DHT22;42612;52.232;7.560;2023-01-31T06:44:55;8.30;61.60
56729;DHT22;42612;52.232;7.560;2023-01-31T06:47:20;8.40;61.60
56729;DHT22;42612;52.232;7.560;2023-01-31T06:49:46;8.30;61.70
56729;DHT22;42612;52.232;7.560;2023-01-31T06:52:11;8.40;61.60
56729;DHT22;42612;52.232;7.560;2023-01-31T06:54:37;8.40;62.00
56729;DHT22;42612;52.232;7.560;2023-01-31T06:57:03;8.30;61.90
56729;DHT22;42612;52.232;7.560;2023-01-31T06:59:28;8.30;62.00
56729;DHT22;42612;52.232;7.560;2023-01-31T07:01:54;8.30;62.10
56729;DHT22;42612;52.232;7.560;2023-01-31T07:04:20;8.30;61.70
56729;DHT22;42612;52.232;7.560;2023-01-31T07:06:45;8.40;61.90
56729;DHT22;42612;52.232;7.560;2023-01-31T07:09:11;8.40;62.20
56729;DHT22;42612;52.232;7.560;2023-01-31T07:11:37;8.30;62.00
56729;DHT22;42612;52.232;7.560;2023-01-31T07:14:02;8.40;62.00
56729;DHT22;42612;52.232;7.560;2023-01-31T07:16:28;8.40;61.70
56729;DHT22;42612;52.232;7.560;2023-01-31T07:18:55;8.40;61.50
56729;DHT22;42612;52.232;7.560;2023-01-31T07:21:21;8.40;61.70
56729;DHT22;42612;52.232;7.560;2023-01-31T07:23:47;8.40;61.70
56729;DHT22;42612;52.232;7.560;2023-01-31T07:26:13;8.40;61.90
56729;DHT22;42612;52.232;7.560;2023-01-31T07:28:39;8.40;62.50
56729;DHT22;42612;52.232;7.560;2023-01-31T07:31:05;8.40;62.40
56729;DHT22;42612;52.232;7.560;2023-01-31T07:33:35;8.40;62.40
56729;DHT22;42612;52.232;7.560;2023-01-31T07:36:04;8.40;62.50
56729;DHT22;42612;52.232;7.560;2023-01-31T07:38:31;8.50;62.70
56729;DHT22;42612;52.232;7.560;2023-01-31T07:40:58;8.40;62.00
56729;DHT22;42612;52.232;7.560;2023-01-31T07:43:27;8.50;62.40
56729;DHT22;42612;52.232;7.560;2023-01-31T07:45:53;8.50;62.20
56729;DHT22;42612;52.232;7.560;2023-01-31T07:48:19;8.50;61.90
56729;DHT22;42612;52.232;7.560;2023-01-31T07:50:51;8.50;61.90
56729;DHT22;42612;52.232;7.560;2023-01-31T07:53:23;8.50;62.00
56729;DHT22;42612;52.232;7.560;2023-01-31T07:55:49;8.50;62.00
56729;DHT22;42612;52.232;7.560;2023-01-31T07:58:15;8.60;62.00
56729;DHT22;42612;52.232;7.560;2023-01-31T08:00:41;8.60;62.10
56729;DHT22;42612;52.232;7.560;2023-01-31T08:03:26;8.60;62.20
56729;DHT22;42612;52.232;7.560;2023-01-31T08:06:00;8.60;62.50
56729;DHT22;42612;52.232;7.560;2023-01-31T08:08:25;8.60;62.00
56729;DHT22;42612;52.232;7.560;2023-01-31T08:10:51;8.60;62.70
56729;DHT22;42612;52.232;7.560;2023-01-31T08:13:16;8.60;62.50
56729;DHT22;42612;52.232;7.560;2023-01-31T08:15:42;8.60;62.10
56729;DHT22;42612;52.232;7.560;2023-01-31T08:18:07;8.60;62.30
56729;DHT22;42612;52.232;7.560;2023-01-31T08:20:33;8.60;62.10
56729;DHT22;42612;52.232;7.560;2023-01-31T08:23:02;8.60;62.20
56729;DHT22;42612;52.232;7.560;2023-01-31T08:25:28;8.60;62.20
56729;DHT22;42612;52.232;7.560;2023-01-31T08:27:57;8.60;62.70
56729;DHT22;42612;52.232;7.560;2023-01-31T08:30:23;8.60;62.90
56729;DHT22;42612;52.232;7.560;2023-01-31T08:32:49;8.60;62.00
56729;DHT22;42612;52.232;7.560;2023-01-31T08:35:14;8.60;62.00
56729;DHT22;42612;52.232;7.560;2023-01-31T08:37:40;8.60;62.20
56729;DHT22;42612;52.232;7.560;2023-01-31T08:40:06;8.60;62.30
56729;DHT22;42612;52.232;7.560;2023-01-31T08:42:32;8.60;62.50
56729;DHT22;42612;52.232;7.560;2023-01-31T08:44:57;8.60;62.30
56729;DHT22;42612;52.232;7.560;2023-01-31T08:47:23;8.60;62.10
56729;DHT22;42612;52.232;7.560;2023-01-31T08:49:48;8.60;62.70
56729;DHT22;42612;52.232;7.560;2023-01-31T08:52:14;8.60;63.00
56729;DHT22;42612;52.232;7.560;2023-01-31T08:54:39;8.60;62.20
56729;DHT22;42612;52.232;7.560;2023-01-31T08:57:05;8.60;62.20
56729;DHT22;42612;52.232;7.560;2023-01-31T08:59:31;8.60;62.90
56729;DHT22;42612;52.232;7.560;2023-01-31T09:01:56;8.60;62.40
56729;DHT22;42612;52.232;7.560;2023-01-31T09:04:22;8.70;62.20
56729;DHT22;42612;52.232;7.560;2023-01-31T09:06:48;8.70;62.70
56729;DHT22;42612;52.232;7.560;2023-01-31T09:09:14;8.60;62.40
56729;DHT22;42612;52.232;7.560;2023-01-31T09:11:39;8.70;62.40
56729;DHT22;42612;52.232;7.560;2023-01-31T09:14:05;8.60;62.60
56729;DHT22;42612;52.232;7.560;2023-01-31T09:16:31;8.60;62.40
56729;DHT22;42612;52.232;7.560;2023-01-31T09:18:56;8.70;62.30
56729;DHT22;42612;52.232;7.560;2023-01-31T09:21:22;8.60;62.40
56729;DHT22;42612;52.232;7.560;2023-01-31T09:23:52;8.70;62.30
56729;DHT22;42612;52.232;7.560;2023-01-31T09:26:19;8.60;62.10
56729;DHT22;42612;52.232;7.560;2023-01-31T09:28:45;8.70;62.40
56729;DHT22;42612;52.232;7.560;2023-01-31T09:31:11;8.60;62.40
56729;DHT22;42612;52.232;7.560;2023-01-31T09:33:39;8.60;62.60
56729;DHT22;42612;52.232;7.560;2023-01-31T09:36:08;8.70;62.50
56729;DHT22;42612;52.232;7.560;2023-01-31T09:38:35;8.70;62.60
56729;DHT22;42612;52.232;7.560;2023-01-31T09:41:08;8.70;62.40
56729;DHT22;42612;52.232;7.560;2023-01-31T09:43:58;8.70;62.50
56729;DHT22;42612;52.232;7.560;2023-01-31T09:46:31;8.70;62.50
56729;DHT22;42612;52.232;7.560;2023-01-31T09:49:00;8.70;62.20
56729;DHT22;42612;52.232;7.560;2023-01-31T09:51:26;8.70;62.00
56729;DHT22;42612;52.232;7.560;2023-01-31T09:53:53;8.70;62.40
56729;DHT22;42612;52.232;7.560;2023-01-31T10:01:45;8.70;62.50
56729;DHT22;42612;52.232;7.560;2023-01-31T10:04:19;8.70;62.40
56729;DHT22;42612;52.232;7.560;2023-01-31T10:07:05;8.70;62.20
56729;DHT22;42612;52.232;7.560;2023-01-31T10:13:09;8.70;62.60
56729;DHT22;42612;52.232;7.560;2023-01-31T10:18:16;8.70;62.10
56729;DHT22;42612;52.232;7.560;2023-01-31T10:23:25;8.70;62.40
56729;DHT22;42612;52.232;7.560;2023-01-31T10:26:25;8.70;62.20
56729;DHT22;42612;52.232;7.560;2023-01-31T10:29:16;8.70;62.00
56729;DHT22;42612;52.232;7.560;2023-01-31T10:31:57;8.70;62.60
56729;DHT22;42612;52.232;7.560;2023-01-31T10:37:09;8.70;62.90
56729;DHT22;42612;52.232;7.560;2023-01-31T10:39:44;8.70;62.30
56729;DHT22;42612;52.232;7.560;2023-01-31T10:42:31;8.70;62.50
56729;DHT22;42612;52.232;7.560;2023-01-31T10:47:52;8.70;62.30
56729;DHT22;42612;52.232;7.560;2023-01-31T10:50:31;8.70;62.70
56729;DHT22;42612;52.232;7.560;2023-01-31T10:56:16;8.70;62.80
56729;DHT22;42612;52.232;7.560;2023-01-31T10:58:49;8.70;62.80
56729;DHT22;42612;52.232;7.560;2023-01-31T11:01:16;8.70;62.70
56729;DHT22;42612;52.232;7.560;2023-01-31T11:03:52;8.70;63.00
56729;DHT22;42612;52.232;7.560;2023-01-31T11:06:19;8.80;62.60
56729;DHT22;42612;52.232;7.560;2023-01-31T11:08:46;8.80;62.60
56729;DHT22;42612;52.232;7.560;2023-01-31T11:11:22;8.80;62.70
56729;DHT22;42612;52.232;7.560;2023-01-31T11:14:03;8.80;62.60
56729;DHT22;42612;52.232;7.560;2023-01-31T11:16:34;8.80;62.90
56729;DHT22;42612;52.232;7.560;2023-01-31T11:19:02;8.80;62.70
56729;DHT22;42612;52.232;7.560;2023-01-31T11:21:36;8.90;62.60
56729;DHT22;42612;52.232;7.560;2023-01-31T11:24:03;8.80;62.70
56729;DHT22;42612;52.232;7.560;2023-01-31T11:26:32;8.90;62.60
56729;DHT22;42612;52.232;7.560;2023-01-31T11:28:59;8.90;62.50
56729;DHT22;42612;52.232;7.560;2023-01-31T11:31:28;8.90;62.60
56729;DHT22;42612;52.232;7.560;2023-01-31T11:34:20;8.90;62.60
56729;DHT22;42612;52.232;7.560;2023-01-31T11:36:49;8.90;62.80
56729;DHT22;42612;52.232;7.560;2023-01-31T11:39:29;9.00;62.60
56729;DHT22;42612;52.232;7.560;2023-01-31T11:41:56;9.00;62.60
56729;DHT22;42612;52.232;7.560;2023-01-31T11:44:29;8.90;62.70
56729;DHT22;42612;52.232;7.560;2023-01-31T11:46:55;9.00;62.80
56729;DHT22;42612;52.232;7.560;2023-01-31T11:52:02;9.00;62.70
56729;DHT22;42612;52.232;7.560;2023-01-31T11:54:41;9.00;62.80
56729;DHT22;42612;52.232;7.560;2023-01-31T11:57:15;9.00;63.10
56729;DHT22;42612;52.232;7.560;2023-01-31T11:59:41;9.00;63.20
56729;DHT22;42612;52.232;7.560;2023-01-31T12:05:09;9.10;63.00
56729;DHT22;42612;52.232;7.560;2023-01-31T12:10:26;9.10;62.60
56729;DHT22;42612;52.232;7.560;2023-01-31T12:13:03;9.10;63.10
56729;DHT22;42612;52.232;7.560;2023-01-31T12:15:38;9.10;62.90
56729;DHT22;42612;52.232;7.560;2023-01-31T12:26:29;9.10;62.80
56729;DHT22;42612;52.232;7.560;2023-01-31T12:34:25;9.10;63.60
56729;DHT22;42612;52.232;7.560;2023-01-31T12:37:02;9.10;63.10
56729;DHT22;42612;52.232;7.560;2023-01-31T12:39:49;9.20;64.20
56729;DHT22;42612;52.232;7.560;2023-01-31T12:42:34;9.20;63.50
56729;DHT22;42612;52.232;7.560;2023-01-31T12:50:55;9.20;63.40
56729;DHT22;42612;52.232;7.560;2023-01-31T13:02:11;9.20;63.50
56729;DHT22;42612;52.232;7.560;2023-01-31T13:04:58;9.20;64.70
56729;DHT22;42612;52.232;7.560;2023-01-31T13:07:35;9.30;65.20
56729;DHT22;42612;52.232;7.560;2023-01-31T13:10:06;9.20;63.80
56729;DHT22;42612;52.232;7.560;2023-01-31T13:12:35;9.20;63.80
56729;DHT22;42612;52.232;7.560;2023-01-31T13:15:03;9.20;63.70
56729;DHT22;42612;52.232;7.560;2023-01-31T13:17:31;9.20;63.70
56729;DHT22;42612;52.232;7.560;2023-01-31T13:20:03;9.30;64.40
56729;DHT22;42612;52.232;7.560;2023-01-31T13:22:43;9.30;64.50
56729;DHT22;42612;52.232;7.560;2023-01-31T13:25:14;9.30;64.80
56729;DHT22;42612;52.232;7.560;2023-01-31T13:27:43;9.30;65.60
56729;DHT22;42612;52.232;7.560;2023-01-31T13:30:15;9.30;64.70
56729;DHT22;42612;52.232;7.560;2023-01-31T13:32:47;9.30;65.30
56729;DHT22;42612;52.232;7.560;2023-01-31T13:37:42;9.40;64.70
56729;DHT22;42612;52.232;7.560;2023-01-31T13:40:18;9.40;64.90
56729;DHT22;42612;52.232;7.560;2023-01-31T13:42:45;9.40;64.90
56729;DHT22;42612;52.232;7.560;2023-01-31T13:45:18;9.40;64.40
56729;DHT22;42612;52.232;7.560;2023-01-31T13:47:49;9.40;65.10
56729;DHT22;42612;52.232;7.560;2023-01-31T13:50:33;9.50;64.80
56729;DHT22;42612;52.232;7.560;2023-01-31T13:53:32;9.50;64.30
56729;DHT22;42612;52.232;7.560;2023-01-31T13:56:00;9.50;64.50
56729;DHT22;42612;52.232;7.560;2023-01-31T13:58:27;9.50;64.70
56729;DHT22;42612;52.232;7.560;2023-01-31T14:00:58;9.60;64.30
56729;DHT22;42612;52.232;7.560;2023-01-31T14:03:27;9.60;64.10
56729;DHT22;42612;52.232;7.560;2023-01-31T14:05:57;9.50;64.60
56729;DHT22;42612;52.232;7.560;2023-01-31T14:08:28;9.60;64.70
56729;DHT22;42612;52.232;7.560;2023-01-31T14:13:45;9.60;65.20
56729;DHT22;42612;52.232;7.560;2023-01-31T14:21:43;9.70;64.20
56729;DHT22;42612;52.232;7.560;2023-01-31T14:24:59;9.70;64.40
56729;DHT22;42612;52.232;7.560;2023-01-31T14:27:35;9.80;64.50
56729;DHT22;42612;52.232;7.560;2023-01-31T14:40:32;9.90;65.00
56729;DHT22;42612;52.232;7.560;2023-01-31T14:43:07;10.00;65.40
56729;DHT22;42612;52.232;7.560;2023-01-31T14:48:31;10.00;65.40
56729;DHT22;42612;52.232;7.560;2023-01-31T14:53:52;10.10;64.60
56729;DHT22;42612;52.232;7.560;2023-01-31T15:02:53;10.20;65.10
56729;DHT22;42612;52.232;7.560;2023-01-31T15:05:13;10.30;64.60
56729;DHT22;42612;52.232;7.560;2023-01-31T15:10:51;10.30;64.50
56729;DHT22;42612;52.232;7.560;2023-01-31T15:16:26;10.40;64.50
56729;DHT22;42612;52.232;7.560;2023-01-31T15:18:56;10.40;64.50
56729;DHT22;42612;52.232;7.560;2023-01-31T15:21:35;10.40;64.50
56729;DHT22;42612;52.232;7.560;2023-01-31T15:25:17;10.40;64.40
56729;DHT22;42612;52.232;7.560;2023-01-31T15:27:25;10.40;64.30
56729;DHT22;42612;52.232;7.560;2023-01-31T15:32:43;10.50;64.40
56729;DHT22;42612;52.232;7.560;2023-01-31T15:35:15;10.50;64.10
56729;DHT22;42612;52.232;7.560;2023-01-31T15:37:44;10.50;64.20
56729;DHT22;42612;52.232;7.560;2023-01-31T15:40:14;10.50;64.10
56729;DHT22;42612;52.232;7.560;2023-01-31T15:42:43;10.60;64.50
56729;DHT22;42612;52.232;7.560;2023-01-31T15:45:12;10.60;64.30
56729;DHT22;42612;52.232;7.560;2023-01-31T15:47:38;10.60;64.40
56729;DHT22;42612;52.232;7.560;2023-01-31T15:50:16;10.60;64.60
56729;DHT22;42612;52.232;7.560;2023-01-31T15:52:43;10.60;64.30
56729;DHT22;42612;52.232;7.560;2023-01-31T15:55:11;10.60;64.20
56729;DHT22;42612;52.232;7.560;2023-01-31T15:57:40;10.60;64.30
56729;DHT22;42612;52.232;7.560;2023-01-31T16:00:07;10.60;64.20
56729;DHT22;42612;52.232;7.560;2023-01-31T16:02:42;10.70;64.60
56729;DHT22;42612;52.232;7.560;2023-01-31T16:05:11;10.60;64.20
56729;DHT22;42612;52.232;7.560;2023-01-31T16:07:58;10.70;64.20
56729;DHT22;42612;52.232;7.560;2023-01-31T16:10:25;10.70;64.00
56729;DHT22;42612;52.232;7.560;2023-01-31T16:12:52;10.70;64.00
56729;DHT22;42612;52.232;7.560;2023-01-31T16:15:26;10.70;64.00
56729;DHT22;42612;52.232;7.560;2023-01-31T16:17:54;10.70;64.00
56729;DHT22;42612;52.232;7.560;2023-01-31T16:23:22;10.70;63.90
56729;DHT22;42612;52.232;7.560;2023-01-31T16:25:55;10.70;64.90
56729;DHT22;42612;52.232;7.560;2023-01-31T16:28:24;10.70;64.20
56729;DHT22;42612;52.232;7.560;2023-01-31T16:30:50;10.70;64.00
56729;DHT22;42612;52.232;7.560;2023-01-31T16:33:17;10.70;64.00
56729;DHT22;42612;52.232;7.560;2023-01-31T16:35:45;10.70;63.90
56729;DHT22;42612;52.232;7.560;2023-01-31T16:38:26;10.80;64.00
56729;DHT22;42612;52.232;7.560;2023-01-31T16:40:52;10.80;64.00
56729;DHT22;42612;52.232;7.560;2023-01-31T16:43:23;10.80;63.90
56729;DHT22;42612;52.232;7.560;2023-01-31T16:45:55;10.80;63.80
56729;DHT22;42612;52.232;7.560;2023-01-31T16:50:56;10.80;63.60
56729;DHT22;42612;52.232;7.560;2023-01-31T16:53:25;10.80;63.60
56729;DHT22;42612;52.232;7.560;2023-01-31T16:58:54;10.80;63.40
56729;DHT22;42612;52.232;7.560;2023-01-31T17:01:28;10.80;63.30
56729;DHT22;42612;52.232;7.560;2023-01-31T17:06:50;10.80;63.20
56729;DHT22;42612;52.232;7.560;2023-01-31T17:09:25;10.80;63.20
56729;DHT22;42612;52.232;7.560;2023-01-31T17:11:52;10.70;63.20
56729;DHT22;42612;52.232;7.560;2023-01-31T17:14:19;10.70;63.10
56729;DHT22;42612;52.232;7.560;2023-01-31T17:16:44;10.70;63.10
56729;DHT22;42612;52.232;7.560;2023-01-31T17:19:11;10.70;63.10
56729;DHT22;42612;52.232;7.560;2023-01-31T17:21:38;10.70;63.10
56729;DHT22;42612;52.232;7.560;2023-01-31T17:24:08;10.70;63.00
56729;DHT22;42612;52.232;7.560;2023-01-31T17:26:38;10.70;63.00
56729;DHT22;42612;52.232;7.560;2023-01-31T17:29:04;10.70;63.00
56729;DHT22;42612;52.232;7.560;2023-01-31T17:31:29;10.70;62.90
56729;DHT22;42612;52.232;7.560;2023-01-31T17:33:55;10.70;62.90
56729;DHT22;42612;52.232;7.560;2023-01-31T17:36:21;10.70;62.50
56729;DHT22;42612;52.232;7.560;2023-01-31T17:38:46;10.70;62.60
56729;DHT22;42612;52.232;7.560;2023-01-31T17:41:13;10.70;62.70
56729;DHT22;42612;52.232;7.560;2023-01-31T17:43:40;10.70;62.70
56729;DHT22;42612;52.232;7.560;2023-01-31T17:46:06;10.70;62.70
56729;DHT22;42612;52.232;7.560;2023-01-31T17:48:32;10.70;62.60
56729;DHT22;42612;52.232;7.560;2023-01-31T17:50:58;10.70;62.70
56729;DHT22;42612;52.232;7.560;2023-01-31T17:53:23;10.60;62.40
56729;DHT22;42612;52.232;7.560;2023-01-31T17:55:49;10.60;62.60
56729;DHT22;42612;52.232;7.560;2023-01-31T17:58:15;10.60;62.50
56729;DHT22;42612;52.232;7.560;2023-01-31T18:00:44;10.60;62.50
56729;DHT22;42612;52.232;7.560;2023-01-31T18:03:21;10.60;62.30
56729;DHT22;42612;52.232;7.560;2023-01-31T18:05:48;10.60;62.40
56729;DHT22;42612;52.232;7.560;2023-01-31T18:08:14;10.50;62.40
56729;DHT22;42612;52.232;7.560;2023-01-31T18:10:40;10.50;62.40
56729;DHT22;42612;52.232;7.560;2023-01-31T18:13:06;10.50;62.40
56729;DHT22;42612;52.232;7.560;2023-01-31T18:15:33;10.50;62.20
56729;DHT22;42612;52.232;7.560;2023-01-31T18:18:01;10.40;62.30
56729;DHT22;42612;52.232;7.560;2023-01-31T18:20:27;10.40;62.30
56729;DHT22;42612;52.232;7.560;2023-01-31T18:22:53;10.40;62.40
56729;DHT22;42612;52.232;7.560;2023-01-31T18:25:19;10.40;62.30